Time;durP1;ratioP1;P1;durP2;ratioP2;P2;SDS_P1;SDS_P2;PMS_P1;PMS_P2;Temp;Humidity;BMP_temperature;BMP_pressure;BME280_temperature;BME280_humidity;BME280_pressure;Samples;Min_cycle;Max_cycle;Signal;HPM_P1;HPM_P2
2024/04/10 00:00:27;;;;;;;2.80;1.50;;;;;;;10.91;71.23;101052.19;5300927;26;20230;-80
2024/04/10 00:02:56;;;;;;;4.00;1.80;;;;;;;10.90;71.55;101053.16;5307216;26;20368;-82
2024/04/10 00:05:24;;;;;;;3.80;1.80;;;;;;;10.90;71.44;101057.63;5306051;26;20273;-79
2024/04/10 00:07:55;;;;;;;5.23;1.97;;;;;;;10.89;72.07;101051.44;5297845;27;20244;-80
2024/04/10 00:10:21;;;;;;;3.53;1.40;;;;;;;10.86;72.31;101056.94;5301755;27;20234;-80
2024/04/10 00:12:49;;;;;;;3.77;1.40;;;;;;;10.85;72.35;101049.03;5307348;26;20293;-80
2024/04/10 00:15:15;;;;;;;2.83;1.70;;;;;;;10.79;72.76;101061.75;5304893;26;20630;-80
2024/04/10 00:17:43;;;;;;;3.23;1.50;;;;;;;10.81;72.33;101059.00;5294485;27;20243;-80
2024/04/10 00:20:09;;;;;;;2.93;1.77;;;;;;;10.79;72.49;101056.41;5304628;26;20293;-80
2024/04/10 00:22:46;;;;;;;4.00;1.60;;;;;;;10.74;72.47;101070.97;5300179;26;20241;-79
2024/04/10 00:25:12;;;;;;;3.73;1.80;;;;;;;10.71;72.53;101069.34;5303550;26;20251;-80
2024/04/10 00:27:40;;;;;;;4.07;1.83;;;;;;;10.68;73.05;101074.84;5300517;27;20284;-79
2024/04/10 00:30:08;;;;;;;3.30;2.13;;;;;;;10.66;73.28;101076.72;5313569;26;20260;-81
2024/04/10 00:32:36;;;;;;;5.27;1.93;;;;;;;10.63;73.46;101084.88;5308400;26;20293;-80
2024/04/10 00:35:02;;;;;;;4.60;1.77;;;;;;;10.61;72.97;101084.09;5299689;26;20241;-80
2024/04/10 00:37:30;;;;;;;4.37;2.00;;;;;;;10.58;73.23;101088.75;5302633;26;20282;-81
2024/04/10 00:39:58;;;;;;;4.37;1.83;;;;;;;10.57;73.55;101081.72;5301609;26;20247;-81
2024/04/10 00:42:26;;;;;;;3.50;2.00;;;;;;;10.55;73.34;101097.78;5295896;26;20246;-82
2024/04/10 00:44:53;;;;;;;3.13;2.00;;;;;;;10.51;73.20;101095.38;5300717;27;20823;-81
2024/04/10 00:47:25;;;;;;;3.80;1.80;;;;;;;10.55;73.80;101107.59;5295387;27;20324;-81
2024/04/10 00:49:52;;;;;;;5.13;1.73;;;;;;;10.53;73.29;101115.66;5296154;27;20309;-82
2024/04/10 00:52:21;;;;;;;3.10;1.90;;;;;;;10.49;73.83;101113.25;5296198;26;20279;-81
2024/04/10 00:54:47;;;;;;;5.47;2.20;;;;;;;10.47;73.84;101115.13;5303632;27;20236;-79
2024/04/10 00:57:18;;;;;;;4.40;2.77;;;;;;;10.44;74.40;101125.00;5301579;26;20238;-81
2024/04/10 00:59:44;;;;;;;4.07;2.20;;;;;;;10.46;73.97;101121.41;5299652;26;20233;-80
2024/04/10 01:02:12;;;;;;;3.17;2.00;;;;;;;10.46;73.98;101121.41;5306855;26;20246;-81
2024/04/10 01:04:38;;;;;;;5.13;1.93;;;;;;;10.43;73.77;101122.41;5291044;27;20281;-80
2024/04/10 01:07:13;;;;;;;3.17;1.80;;;;;;;10.42;74.18;101132.22;5302594;26;20750;-81
2024/04/10 01:09:38;;;;;;;4.70;1.80;;;;;;;10.41;74.21;101122.50;5296193;27;20887;-80
2024/04/10 01:12:07;;;;;;;5.43;2.03;;;;;;;10.39;74.54;101127.03;5300939;26;20249;-81
2024/04/10 01:14:38;;;;;;;4.43;1.60;;;;;;;10.38;74.27;101128.03;5300716;26;20285;-81
2024/04/10 01:17:09;;;;;;;4.07;1.50;;;;;;;10.37;74.76;101131.63;5297128;27;20328;-81
2024/04/10 01:19:38;;;;;;;4.50;1.67;;;;;;;10.34;74.66;101131.78;5301016;26;20239;-81
2024/04/10 01:22:06;;;;;;;6.50;2.37;;;;;;;10.34;74.44;101134.44;5306664;26;20242;-80
2024/04/10 01:24:34;;;;;;;4.77;1.93;;;;;;;10.32;74.52;101140.78;5297660;26;20250;-80
2024/04/10 01:27:03;;;;;;;3.37;1.97;;;;;;;10.33;75.08;101134.53;5298205;27;20292;-79
2024/04/10 01:29:28;;;;;;;7.07;2.50;;;;;;;10.32;75.31;101136.34;5299250;27;20261;-79
2024/04/10 01:31:56;;;;;;;6.93;2.50;;;;;;;10.29;75.31;101136.50;5299294;26;20804;-82
2024/04/10 01:34:25;;;;;;;3.57;2.17;;;;;;;10.27;75.09;101141.03;5305424;26;20277;-81
2024/04/10 01:36:53;;;;;;;4.77;2.00;;;;;;;10.22;76.00;101139.56;5296390;27;21099;-80
2024/04/10 01:39:22;;;;;;;4.63;2.10;;;;;;;10.21;75.93;101143.19;5304053;27;20231;-80
2024/04/10 01:41:55;;;;;;;6.07;3.30;;;;;;;10.19;75.99;101155.72;5296475;26;20735;-81
2024/04/10 01:44:23;;;;;;;5.03;2.33;;;;;;;10.18;76.10;101154.81;5298237;27;20238;-81
2024/04/10 01:46:52;;;;;;;6.87;2.53;;;;;;;10.16;76.24;101167.34;5295725;27;20247;-81
2024/04/10 01:49:18;;;;;;;5.50;2.70;;;;;;;10.14;76.75;101174.56;5299454;27;20276;-81
2024/04/10 01:51:46;;;;;;;5.10;2.37;;;;;;;10.17;76.46;101170.88;5296005;26;20331;-79
2024/04/10 01:54:13;;;;;;;6.07;2.33;;;;;;;10.17;76.66;101176.19;5303217;27;20820;-80
2024/04/10 01:56:41;;;;;;;7.47;2.23;;;;;;;10.12;76.86;101160.47;5297417;27;20288;-79
2024/04/10 01:59:09;;;;;;;6.60;2.47;;;;;;;10.13;76.85;101164.84;5302583;27;20253;-79
2024/04/10 02:01:38;;;;;;;5.90;2.93;;;;;;;10.13;76.72;101174.63;5297437;26;20246;-80
2024/04/10 02:04:06;;;;;;;6.93;2.67;;;;;;;10.14;76.39;101174.56;5305848;27;20249;-81
2024/04/10 02:06:36;;;;;;;7.30;3.00;;;;;;;10.11;76.57;101172.06;5296356;27;20280;-79
2024/04/10 02:09:07;;;;;;;7.50;2.93;;;;;;;10.10;76.63;101173.84;5298416;26;20768;-79
2024/04/10 02:11:38;;;;;;;7.23;2.77;;;;;;;10.10;77.02;101175.66;5302442;27;20319;-79
2024/04/10 02:14:04;;;;;;;8.57;2.97;;;;;;;10.02;76.92;101186.72;5304529;27;20382;-79
2024/04/10 02:16:35;;;;;;;5.10;2.80;;;;;;;10.00;77.21;101193.06;5301038;27;20233;-80
2024/04/10 02:19:03;;;;;;;8.47;2.73;;;;;;;9.96;77.69;101202.13;5300874;26;20291;-80
2024/04/10 02:21:32;;;;;;;10.37;3.07;;;;;;;9.97;77.91;101201.19;5303256;26;20258;-80
2024/04/10 02:24:00;;;;;;;8.77;3.00;;;;;;;9.97;77.96;101193.22;5298698;27;20250;-80
2024/04/10 02:26:29;;;;;;;6.83;2.40;;;;;;;9.99;77.74;101204.63;5299306;27;20238;-79
2024/04/10 02:28:54;;;;;;;8.00;2.80;;;;;;;10.00;77.99;101201.03;5294431;27;20239;-79
2024/04/10 02:31:22;;;;;;;5.83;3.00;;;;;;;9.97;78.10;101199.41;5306528;26;20276;-80
2024/04/10 02:33:53;;;;;;;5.60;2.80;;;;;;;9.95;78.01;101208.41;5296162;27;20289;-82
2024/04/10 02:36:21;;;;;;;6.60;2.60;;;;;;;9.93;78.37;101219.13;5300305;27;20241;-81
2024/04/10 02:38:50;;;;;;;6.50;2.43;;;;;;;9.91;78.42;101234.28;5296661;27;20237;-81
2024/04/10 02:41:18;;;;;;;6.63;3.17;;;;;;;9.88;78.65;101237.09;5303137;26;20333;-80
2024/04/10 02:43:47;;;;;;;5.53;2.60;;;;;;;9.91;78.50;101246.72;5303469;27;20859;-81
2024/04/10 02:46:16;;;;;;;6.43;2.80;;;;;;;9.89;78.52;101248.59;5289874;27;20239;-81
2024/04/10 02:48:45;;;;;;;7.67;2.90;;;;;;;9.89;78.52;101259.25;5298571;27;20234;-80
2024/04/10 02:51:19;;;;;;;7.97;3.20;;;;;;;9.85;78.67;101257.72;5299106;26;20242;-79
2024/04/10 02:53:45;;;;;;;7.67;3.17;;;;;;;9.83;79.30;101254.25;5293817;27;20277;-83
2024/04/10 02:56:13;;;;;;;8.27;3.03;;;;;;;9.82;79.24;101263.19;5294516;27;20598;-79
2024/04/10 02:58:40;;;;;;;8.63;3.70;;;;;;;9.82;79.34;101265.84;5293463;27;20285;-80
2024/04/10 03:01:09;;;;;;;8.07;2.93;;;;;;;9.82;79.44;101257.84;5301125;26;20605;-79
2024/04/10 03:03:37;;;;;;;6.07;2.60;;;;;;;9.83;79.14;101259.59;5300450;27;20665;-80
2024/04/10 03:06:07;;;;;;;8.90;3.43;;;;;;;9.84;79.58;101251.53;5304105;27;20242;-79
2024/04/10 03:08:36;;;;;;;7.87;4.07;;;;;;;9.83;79.15;101262.25;5298853;26;20670;-80
2024/04/10 03:11:08;;;;;;;14.40;4.60;;;;;;;9.82;79.28;101268.50;5301362;26;20261;-80
2024/04/10 03:13:35;;;;;;;9.93;3.03;;;;;;;9.80;79.86;101278.34;5294532;27;20246;-79
2024/04/10 03:16:04;;;;;;;7.60;3.00;;;;;;;9.79;79.68;101276.63;5298338;27;20994;-80
2024/04/10 03:18:29;;;;;;;8.33;3.37;;;;;;;9.72;80.11;101281.38;5294836;26;20292;-79
2024/04/10 03:21:00;;;;;;;9.60;3.80;;;;;;;9.71;80.33;101284.97;5304234;26;20586;-81
2024/04/10 03:23:26;;;;;;;6.53;3.30;;;;;;;9.71;80.22;101293.81;5297919;27;20238;-80
2024/04/10 03:26:05;;;;;;;5.90;3.17;;;;;;;9.70;80.61;101293.88;5291796;27;20308;-80
2024/04/10 03:28:31;;;;;;;11.90;3.47;;;;;;;9.68;80.70;101312.59;5298560;27;20238;-80
2024/04/10 03:30:59;;;;;;;9.10;3.73;;;;;;;9.66;80.77;101309.16;5295351;26;20285;-80
2024/04/10 03:33:26;;;;;;;10.13;3.37;;;;;;;9.66;80.83;101313.63;5302336;26;20233;-81
2024/04/10 03:35:54;;;;;;;11.00;4.53;;;;;;;9.64;80.79;101326.13;5294487;26;21756;-79
2024/04/10 03:38:20;;;;;;;7.73;2.93;;;;;;;9.61;80.89;101321.81;5301157;26;20230;-79
2024/04/10 03:40:49;;;;;;;7.93;3.30;;;;;;;9.58;81.01;101315.78;5294230;26;20290;-79
2024/04/10 03:43:20;;;;;;;8.17;3.20;;;;;;;9.59;81.42;101330.81;5296717;26;20284;-79
2024/04/10 03:45:49;;;;;;;12.60;3.87;;;;;;;9.59;81.17;101329.00;5297318;26;20250;-80
2024/04/10 03:48:18;;;;;;;7.90;2.87;;;;;;;9.54;81.29;101341.66;5294807;27;20243;-79
2024/04/10 03:50:46;;;;;;;7.53;3.70;;;;;;;9.53;81.24;101334.59;5292653;27;20241;-80
2024/04/10 03:53:15;;;;;;;8.57;3.60;;;;;;;9.52;81.23;101340.88;5302094;27;20296;-80
2024/04/10 03:55:40;;;;;;;9.20;3.23;;;;;;;9.54;81.61;101346.09;5298540;27;20774;-80
2024/04/10 03:58:09;;;;;;;8.30;3.00;;;;;;;9.52;81.55;101351.50;5294945;27;20226;-79
2024/04/10 04:00:37;;;;;;;7.67;3.37;;;;;;;9.53;81.10;101344.38;5287733;27;20238;-79
2024/04/10 04:03:06;;;;;;;7.33;3.43;;;;;;;9.51;81.05;101352.44;5292078;26;20289;-81
2024/04/10 04:05:31;;;;;;;8.00;3.50;;;;;;;9.51;81.27;101370.19;5290692;27;20238;-79
2024/04/10 04:08:00;;;;;;;10.40;3.13;;;;;;;9.50;81.26;101376.44;5290389;26;20290;-79
2024/04/10 04:10:25;;;;;;;7.70;2.97;;;;;;;9.49;81.69;101388.03;5304774;27;20235;-81
2024/04/10 04:12:54;;;;;;;14.20;4.47;;;;;;;9.51;81.61;101394.97;5300609;26;20296;-81
2024/04/10 04:15:19;;;;;;;7.57;3.37;;;;;;;9.51;81.33;101400.28;5299308;27;20230;-81
2024/04/10 04:17:50;;;;;;;9.17;3.63;;;;;;;9.51;81.24;101405.63;5305611;27;20292;-81
2024/04/10 04:20:16;;;;;;;8.77;3.57;;;;;;;9.53;81.93;101414.38;5306670;27;20284;-80
2024/04/10 04:22:44;;;;;;;7.40;2.90;;;;;;;9.53;81.54;101430.34;5295364;26;20238;-79
2024/04/10 04:25:10;;;;;;;11.17;3.30;;;;;;;9.53;81.63;101434.78;5300117;27;20338;-81
2024/04/10 04:27:38;;;;;;;10.27;2.97;;;;;;;9.53;81.92;101440.97;5300293;27;20238;-79
2024/04/10 04:30:05;;;;;;;8.53;2.70;;;;;;;9.54;81.91;101442.69;5296536;27;20596;-81
2024/04/10 04:32:34;;;;;;;9.83;3.73;;;;;;;9.56;81.92;101448.81;5297880;26;20281;-81
2024/04/10 04:35:03;;;;;;;7.63;2.57;;;;;;;9.57;82.19;101457.66;5306306;27;20774;-81
2024/04/10 04:37:31;;;;;;;10.40;3.63;;;;;;;9.59;82.09;101461.97;5306161;27;20383;-81
2024/04/10 04:39:57;;;;;;;7.00;3.37;;;;;;;9.60;81.92;101469.03;5304346;26;20288;-82
2024/04/10 04:42:25;;;;;;;7.17;2.93;;;;;;;9.62;82.12;101485.78;5300621;27;20743;-81
2024/04/10 04:44:51;;;;;;;10.07;3.23;;;;;;;9.63;82.24;101489.31;5304308;27;20297;-82
2024/04/10 04:47:19;;;;;;;8.43;4.13;;;;;;;9.62;82.20;101493.75;5303637;27;20348;-81
2024/04/10 04:49:45;;;;;;;13.87;3.30;;;;;;;9.64;82.49;101501.66;5292018;27;21002;-80
2024/04/10 04:52:16;;;;;;;9.73;3.53;;;;;;;9.65;82.26;101506.91;5299286;26;20242;-79
2024/04/10 04:54:42;;;;;;;9.80;3.60;;;;;;;9.67;82.52;101513.00;5302193;27;20276;-80
2024/04/10 04:57:12;;;;;;;7.40;3.30;;;;;;;9.67;82.58;101513.00;5294894;27;20235;-81
2024/04/10 04:59:38;;;;;;;13.37;4.30;;;;;;;9.68;82.49;101514.72;5292999;27;20238;-80
2024/04/10 05:02:07;;;;;;;9.10;3.10;;;;;;;9.70;82.80;101520.84;5296513;26;20230;-79
2024/04/10 05:07:22;;;;;;;6.00;3.23;;;;;;;9.73;82.90;101523.38;5294421;27;20280;-80
2024/04/10 05:09:52;;;;;;;8.33;3.00;;;;;;;9.74;83.18;101524.22;5299233;27;20238;-81
2024/04/10 05:12:21;;;;;;;6.87;3.23;;;;;;;9.75;83.01;101532.16;5307153;26;20747;-81
2024/04/10 05:14:50;;;;;;;9.97;3.43;;;;;;;9.78;82.77;101530.28;5298358;26;21776;-80
2024/04/10 05:17:19;;;;;;;31.63;17.40;;;;;;;9.79;82.83;101537.34;5298352;27;21169;-80
2024/04/10 05:19:44;;;;;;;19.03;9.33;;;;;;;9.81;83.15;101540.78;5303467;27;20336;-80
2024/04/10 05:22:13;;;;;;;12.53;3.53;;;;;;;9.81;82.83;101546.97;5303415;26;20258;-81
2024/04/10 05:24:41;;;;;;;8.80;3.07;;;;;;;9.82;82.98;101554.03;5291997;27;20242;-81
2024/04/10 05:27:12;;;;;;;9.07;3.20;;;;;;;9.83;82.91;101566.41;5305645;27;20242;-81
2024/04/10 05:29:38;;;;;;;6.33;3.17;;;;;;;9.83;82.54;101573.50;5293175;27;22341;-82
2024/04/10 05:32:06;;;;;;;10.97;3.83;;;;;;;9.86;82.52;101570.69;5303406;26;20242;-81
2024/04/10 05:34:32;;;;;;;9.43;3.97;;;;;;;9.90;82.30;101577.59;5305698;27;20293;-81
2024/04/10 05:37:00;;;;;;;7.87;3.43;;;;;;;9.85;82.41;101575.19;5296623;26;20597;-80
2024/04/10 05:39:25;;;;;;;11.40;3.47;;;;;;;9.87;82.15;101583.06;5305283;26;20273;-79
2024/04/10 05:41:58;;;;;;;13.27;5.00;;;;;;;9.84;82.26;101584.09;5300598;26;20234;-80
2024/04/10 05:44:24;;;;;;;14.95;12.05;;;;;;;9.81;82.32;101592.19;5300266;27;20238;-81
2024/04/10 05:46:52;;;;;;;11.00;3.90;;;;;;;9.85;82.12;101601.78;5302881;27;20522;-80
2024/04/10 05:49:18;;;;;;;8.03;4.30;;;;;;;9.84;82.20;101599.19;5294440;26;20626;-81
2024/04/10 05:51:46;;;;;;;12.73;3.70;;;;;;;9.82;82.15;101598.38;5294753;27;20238;-79
2024/04/10 05:54:12;;;;;;;9.23;3.57;;;;;;;9.81;82.36;101605.50;5302400;27;20239;-79
2024/04/10 05:56:40;;;;;;;9.07;3.63;;;;;;;9.83;82.36;101608.09;5297467;27;20276;-80
2024/04/10 05:59:19;;;;;;;8.87;4.00;;;;;;;9.83;82.23;101608.09;5297852;27;20272;-81
2024/04/10 06:04:16;;;;;;;8.03;4.10;;;;;;;9.88;82.71;101617.59;5252475;27;20772;-72
2024/04/10 06:06:42;;;;;;;12.87;4.07;;;;;;;9.87;82.65;101622.97;5260882;27;20250;-74
2024/04/10 06:09:10;;;;;;;10.87;4.00;;;;;;;9.84;82.82;101625.78;5264040;27;20321;-74
2024/04/10 06:11:36;;;;;;;13.40;5.20;;;;;;;9.83;83.04;101629.38;5256471;27;20286;-74
2024/04/10 06:14:05;;;;;;;11.80;3.70;;;;;;;9.83;83.17;101630.25;5254847;27;20286;-74
2024/04/10 06:16:33;;;;;;;10.17;4.10;;;;;;;9.83;83.38;101640.03;5260719;27;20291;-75
2024/04/10 06:21:29;;;;;;;13.37;5.23;;;;;;;9.92;83.10;101640.47;5253595;27;20235;-73
2024/04/10 06:23:57;;;;;;;9.97;4.30;;;;;;;9.99;83.75;101636.59;5263805;27;20591;-73
2024/04/10 06:26:23;;;;;;;8.23;4.23;;;;;;;10.10;82.89;101647.63;5264337;27;20252;-74
2024/04/10 06:28:51;;;;;;;11.77;5.10;;;;;;;10.21;82.53;101655.13;5234255;27;20237;-74
2024/04/10 06:31:17;;;;;;;9.37;4.53;;;;;;;10.35;81.92;101643.88;5229599;27;20298;-74
2024/04/10 06:33:48;;;;;;;9.10;4.70;;;;;;;10.50;81.83;101652.94;5225254;27;20240;-75
2024/04/10 06:36:14;;;;;;;9.70;5.20;;;;;;;10.63;80.04;101659.41;5221750;27;20232;-74
2024/04/10 06:38:42;;;;;;;10.90;4.97;;;;;;;10.74;79.00;101657.13;5216320;27;20271;-74
2024/04/10 06:41:09;;;;;;;10.80;4.73;;;;;;;10.86;77.68;101659.19;5224624;27;20232;-75
2024/04/10 06:43:37;;;;;;;11.07;4.80;;;;;;;10.98;77.33;101663.03;5226724;27;20343;-74
2024/04/10 06:46:05;;;;;;;11.83;4.50;;;;;;;11.13;77.89;101665.81;5222603;27;20590;-74
2024/04/10 06:48:33;;;;;;;11.00;3.80;;;;;;;11.33;77.32;101662.16;5231772;27;20874;-74
2024/04/10 06:51:03;;;;;;;12.37;4.90;;;;;;;11.50;74.87;101669.28;5214375;27;20237;-74
2024/04/10 06:53:32;;;;;;;8.43;4.80;;;;;;;11.59;74.19;101679.50;5219713;27;20285;-75
2024/04/10 06:55:59;;;;;;;9.47;4.20;;;;;;;11.69;74.31;101674.56;5228611;27;20245;-74
2024/04/10 06:58:28;;;;;;;7.93;3.97;;;;;;;11.82;73.87;101683.69;5218591;27;20355;-74
2024/04/10 07:02:28;;;;;;;8.03;4.10;;;;;;;11.97;71.95;101693.56;5487550;25;20651;-75
2024/04/10 07:04:54;;;;;;;7.33;4.47;;;;;;;11.99;71.54;101701.50;5486304;26;20237;-75
2024/04/10 07:07:22;;;;;;;11.30;3.80;;;;;;;11.97;71.11;101700.72;5487121;25;20247;-75
2024/04/10 07:09:50;;;;;;;7.77;4.20;;;;;;;11.99;70.40;101704.19;5479659;25;20240;-74
2024/04/10 07:14:44;;;;;;;75.57;44.90;;;;;;;12.05;70.87;101703.84;5507945;21;20312;-79
2024/04/10 07:17:10;;;;;;;11.17;4.47;;;;;;;12.12;71.82;101718.59;5461200;26;20233;-79
2024/04/10 07:19:40;;;;;;;9.87;4.40;;;;;;;12.12;70.86;101718.59;5452424;26;20242;-80
2024/04/10 07:22:07;;;;;;;9.77;3.87;;;;;;;12.18;70.50;101738.78;5460108;26;20279;-79
2024/04/10 07:24:36;;;;;;;9.60;3.57;;;;;;;12.20;70.54;101739.53;5463974;26;20318;-80
2024/04/10 07:27:02;;;;;;;7.53;3.30;;;;;;;12.27;71.82;101736.47;5464185;26;20245;-80
2024/04/10 07:29:30;;;;;;;10.10;3.63;;;;;;;12.40;71.26;101737.53;5465422;26;20668;-79
2024/04/10 07:31:56;;;;;;;8.10;3.77;;;;;;;12.57;71.18;101727.75;5462560;26;20237;-79
2024/04/10 07:34:24;;;;;;;9.30;3.50;;;;;;;12.71;69.88;101720.72;5466221;26;20275;-79
2024/04/10 07:36:53;;;;;;;9.10;3.33;;;;;;;12.79;69.15;101729.16;5468011;26;20225;-78
2024/04/10 07:39:21;;;;;;;8.00;3.07;;;;;;;12.88;69.81;101740.31;5459216;26;20300;-79
2024/04/10 07:41:47;;;;;;;6.30;3.13;;;;;;;12.99;69.44;101745.91;5460950;26;20293;-79
2024/04/10 07:44:16;;;;;;;6.77;3.13;;;;;;;13.04;68.93;101755.41;5461547;26;20314;-78
2024/04/10 07:46:43;;;;;;;8.97;3.53;;;;;;;13.08;69.17;101756.94;5460034;26;20281;-79
2024/04/10 07:49:13;;;;;;;7.10;2.50;;;;;;;13.07;68.60;101760.59;5451734;26;20257;-79
2024/04/10 07:51:39;;;;;;;6.30;2.90;;;;;;;13.05;68.51;101762.47;5455216;26;20295;-79
2024/04/10 07:54:10;;;;;;;6.13;2.47;;;;;;;13.06;68.88;101768.69;5457205;26;20272;-80
2024/04/10 07:56:35;;;;;;;9.47;2.47;;;;;;;13.11;67.39;101764.78;5456723;26;20226;-79
2024/04/10 07:59:04;;;;;;;5.37;3.70;;;;;;;13.12;67.66;101771.88;5461598;26;20615;-79
2024/04/10 08:01:29;;;;;;;4.23;2.03;;;;;;;13.16;67.20;101773.47;5450528;26;20315;-80
2024/04/10 08:04:02;;;;;;;3.47;2.23;;;;;;;13.18;66.66;101776.91;5452975;26;20242;-79
2024/04/10 08:06:29;;;;;;;7.37;2.20;;;;;;;13.14;67.30;101779.81;5456908;26;20241;-79
2024/04/10 08:08:57;;;;;;;6.33;2.70;;;;;;;13.14;67.96;101794.06;5458814;26;20314;-79
2024/04/10 08:11:27;;;;;;;6.47;2.30;;;;;;;13.13;66.58;101792.31;5458478;26;20234;-79
2024/04/10 08:13:55;;;;;;;6.50;2.60;;;;;;;13.08;66.69;101806.88;5440467;26;20549;-79
2024/04/10 08:16:21;;;;;;;8.40;3.53;;;;;;;13.04;67.50;101803.56;5444079;26;20239;-80
2024/04/10 08:18:50;;;;;;;8.83;2.67;;;;;;;13.02;67.11;101809.94;5437026;26;20686;-79
2024/04/10 08:21:16;;;;;;;8.03;3.97;;;;;;;13.01;67.58;101810.88;5439964;26;20260;-78
2024/04/10 08:23:46;;;;;;;9.77;3.27;;;;;;;13.07;68.92;101815.91;5439382;26;20268;-80
2024/04/10 08:26:13;;;;;;;4.53;2.10;;;;;;;13.16;68.49;101828.78;5443423;26;20294;-79
2024/04/10 08:28:48;;;;;;;6.07;2.60;;;;;;;13.23;68.54;101826.63;5435525;26;20823;-79
2024/04/10 08:31:15;;;;;;;3.87;2.90;;;;;;;13.20;67.21;101836.56;5439309;26;20760;-79
2024/04/10 08:33:43;;;;;;;8.07;3.60;;;;;;;13.25;67.46;101838.97;5442135;26;20238;-79
2024/04/10 08:36:12;;;;;;;9.37;3.30;;;;;;;13.37;68.25;101838.28;5444353;26;20277;-79
2024/04/10 08:38:40;;;;;;;6.57;3.40;;;;;;;13.45;66.83;101849.41;5446351;26;20569;-79
2024/04/10 08:41:12;;;;;;;8.80;3.40;;;;;;;13.41;66.54;101847.88;5443489;26;20867;-80
2024/04/10 08:43:46;;;;;;;8.17;3.03;;;;;;;13.35;66.35;101860.72;5437035;26;20241;-78
2024/04/10 08:46:13;;;;;;;6.70;3.27;;;;;;;13.29;66.60;101858.38;5439264;26;20264;-80
2024/04/10 08:48:42;;;;;;;8.40;4.10;;;;;;;13.22;66.47;101862.34;5438459;26;20346;-79
2024/04/10 08:51:11;;;;;;;7.93;3.90;;;;;;;13.07;66.41;101864.03;5444261;26;20229;-79
2024/04/10 08:53:45;;;;;;;8.60;3.47;;;;;;;13.05;67.61;101865.94;5446591;26;20234;-79
2024/04/10 08:56:12;;;;;;;19.90;12.07;;;;;;;13.07;68.01;101867.56;5443995;26;20241;-79
2024/04/10 08:58:41;;;;;;;8.63;3.63;;;;;;;13.08;66.42;101877.28;5444026;26;20276;-79
2024/04/10 09:01:09;;;;;;;5.83;2.90;;;;;;;13.06;65.39;101876.53;5439730;26;20242;-79
2024/04/10 09:03:39;;;;;;;5.77;2.90;;;;;;;13.02;65.47;101879.47;5445559;26;20253;-78
2024/04/10 09:06:06;;;;;;;7.00;3.27;;;;;;;13.00;65.60;101884.88;5439466;26;20267;-79
2024/04/10 09:08:34;;;;;;;11.77;2.70;;;;;;;13.01;65.52;101886.63;5439729;26;20234;-79
2024/04/10 09:11:00;;;;;;;10.37;3.00;;;;;;;13.07;66.13;101893.47;5443414;26;20234;-79
2024/04/10 09:13:28;;;;;;;4.90;2.37;;;;;;;13.11;65.56;101892.31;5444504;26;20277;-79
2024/04/10 09:15:56;;;;;;;7.33;2.60;;;;;;;13.10;65.26;101893.25;5440681;26;20298;-79
2024/04/10 09:18:28;;;;;;;5.63;2.73;;;;;;;13.21;65.44;101890.91;5440323;26;20242;-79
2024/04/10 09:21:08;;;;;;;5.30;2.73;;;;;;;13.43;64.61;101901.31;5442413;26;20357;-80
2024/04/10 09:23:37;;;;;;;5.20;2.37;;;;;;;13.58;63.09;101888.88;5439563;26;20227;-79
2024/04/10 09:26:03;;;;;;;4.13;2.10;;;;;;;13.61;61.15;101894.06;5442561;26;20233;-79
2024/04/10 09:28:31;;;;;;;3.87;1.63;;;;;;;13.62;60.86;101901.13;5440563;26;20625;-80
2024/04/10 09:30:57;;;;;;;5.60;1.80;;;;;;;13.59;61.88;101914.69;5441669;26;20268;-79
2024/04/10 09:33:29;;;;;;;5.67;1.90;;;;;;;13.57;61.40;101911.25;5442405;26;20233;-79
2024/04/10 09:35:56;;;;;;;7.10;1.97;;;;;;;13.56;62.17;101918.41;5436802;26;20236;-80
2024/04/10 09:38:26;;;;;;;4.03;1.60;;;;;;;13.57;62.22;101914.78;5441574;26;20342;-79
2024/04/10 09:41:00;;;;;;;5.93;3.20;;;;;;;13.58;61.69;101911.16;5440034;26;20242;-79
2024/04/10 09:43:31;;;;;;;10.70;6.27;;;;;;;13.61;60.83;101910.13;5439001;26;20333;-79
2024/04/10 09:45:59;;;;;;;8.27;2.97;;;;;;;13.65;61.88;101907.16;5447199;26;20238;-79
2024/04/10 09:48:33;;;;;;;5.57;2.30;;;;;;;13.79;62.34;101909.94;5433288;26;20264;-79
2024/04/10 10:03:36;;;;;;;4.07;1.67;;;;;;;14.86;56.86;101911.69;5248133;26;20689;-82
2024/04/10 10:06:04;;;;;;;5.00;2.20;;;;;;;14.87;56.56;101908.91;5210396;27;20253;-81
2024/04/10 10:08:32;;;;;;;6.73;1.70;;;;;;;14.85;56.68;101913.53;5217414;27;20253;-82
2024/04/10 10:10:58;;;;;;;4.90;2.03;;;;;;;14.83;56.50;101920.78;5211392;27;20299;-82
2024/04/10 10:13:30;;;;;;;4.80;1.77;;;;;;;14.81;56.33;101922.69;5224152;27;20245;-82
2024/04/10 10:15:57;;;;;;;3.33;1.30;;;;;;;14.75;55.23;101927.56;5220451;27;20236;-82
2024/04/10 10:18:26;;;;;;;3.90;1.80;;;;;;;14.68;55.90;101937.81;5221325;27;20280;-82
2024/04/10 10:21:03;;;;;;;3.53;1.67;;;;;;;14.61;56.38;101935.59;5207433;27;20253;-81
2024/04/10 10:23:31;;;;;;;4.80;2.00;;;;;;;14.58;56.40;101929.44;5216375;27;20252;-83
2024/04/10 10:25:57;;;;;;;5.13;1.53;;;;;;;14.60;56.65;101940.06;5212969;27;20295;-82
2024/04/10 10:28:25;;;;;;;3.70;1.50;;;;;;;14.61;56.08;101935.59;5224996;27;20237;-82
2024/04/10 10:30:51;;;;;;;5.27;1.87;;;;;;;14.61;55.58;101943.63;5218082;27;20236;-82
2024/04/10 10:33:21;;;;;;;6.27;2.77;;;;;;;14.60;55.93;101940.06;5218851;27;20244;-82
2024/04/10 10:57:09;;;;;;;4.93;1.80;;;;;;;14.77;55.55;101957.84;5384282;26;20731;-83
2024/04/10 10:59:35;;;;;;;5.60;1.73;;;;;;;14.79;55.64;101954.09;5362861;26;20325;-81
2024/04/10 11:02:03;;;;;;;3.87;1.60;;;;;;;14.79;54.31;101950.56;5364570;26;20840;-81
2024/04/10 11:04:30;;;;;;;5.30;1.57;;;;;;;14.75;54.54;101965.09;5357895;26;20769;-82
2024/04/10 11:07:08;;;;;;;1.80;1.20;;;;;;;14.68;54.95;101961.94;5357172;26;20237;-82
2024/04/10 11:09:34;;;;;;;5.93;1.67;;;;;;;14.66;55.07;101963.84;5362222;26;21728;-82
2024/04/10 11:12:03;;;;;;;3.30;1.53;;;;;;;14.62;55.68;101964.13;5358839;26;20271;-82
2024/04/10 11:14:32;;;;;;;3.87;1.47;;;;;;;14.65;56.67;101963.94;5359639;26;20233;-83
2024/04/10 11:17:01;;;;;;;5.53;2.23;;;;;;;14.78;57.16;101956.88;5358131;26;20322;-83
2024/04/10 11:19:33;;;;;;;6.83;1.83;;;;;;;14.92;57.03;101959.59;5357710;26;20536;-82
2024/04/10 11:22:02;;;;;;;3.13;1.53;;;;;;;15.05;54.96;101959.72;5353481;26;20269;-82
2024/04/10 11:24:29;;;;;;;4.53;1.90;;;;;;;15.14;54.25;101954.63;5345734;26;20356;-81
2024/04/10 11:26:58;;;;;;;3.83;1.90;;;;;;;15.23;54.09;101963.94;5356066;26;20230;-82
2024/04/10 11:29:26;;;;;;;6.43;1.97;;;;;;;15.33;54.25;101966.91;5348843;26;20241;-81
2024/04/10 11:31:57;;;;;;;4.53;1.80;;;;;;;15.42;54.22;101967.19;5357164;26;20872;-81
2024/04/10 11:34:29;;;;;;;6.13;1.97;;;;;;;15.49;53.88;101978.41;5346944;26;20368;-81
2024/04/10 11:36:55;;;;;;;3.50;1.60;;;;;;;15.49;53.15;101978.41;5341265;26;20239;-81
2024/04/10 11:39:24;;;;;;;4.93;1.93;;;;;;;15.50;53.13;101980.16;5346876;26;20270;-80
2024/04/10 11:41:50;;;;;;;7.97;2.03;;;;;;;15.52;52.67;101988.97;5354977;26;20313;-79
2024/04/10 11:44:25;;;;;;;3.63;1.70;;;;;;;15.56;52.95;101987.88;5353255;26;20241;-80
2024/04/10 11:46:51;;;;;;;6.33;2.43;;;;;;;15.53;52.51;101988.03;5362262;26;20237;-78
2024/04/10 11:49:22;;;;;;;4.40;1.77;;;;;;;15.50;52.39;101980.16;5362089;26;20239;-79
2024/04/10 11:51:48;;;;;;;5.43;2.00;;;;;;;15.49;52.82;101981.09;5349065;26;20238;-80
2024/04/10 11:54:19;;;;;;;5.97;2.47;;;;;;;15.44;52.17;101989.44;5358933;26;20278;-79
2024/04/10 11:56:45;;;;;;;3.33;1.70;;;;;;;15.41;52.43;101995.00;5341757;26;20253;-79
2024/04/10 11:59:13;;;;;;;5.17;2.40;;;;;;;15.39;52.69;101994.25;5345474;26;20239;-79
2024/04/10 12:01:39;;;;;;;3.53;1.80;;;;;;;15.42;52.80;101993.19;5343668;26;20862;-80
2024/04/10 12:04:07;;;;;;;4.33;1.60;;;;;;;15.41;53.64;101992.31;5344271;26;20231;-79
2024/04/10 12:06:38;;;;;;;4.17;1.27;;;;;;;15.39;52.61;101993.41;5341744;26;20355;-79
2024/04/10 12:09:07;;;;;;;5.87;1.93;;;;;;;15.35;53.15;101999.91;5349487;26;20344;-82
2024/04/10 12:11:33;;;;;;;5.43;1.63;;;;;;;15.32;53.63;102005.47;5343782;26;20285;-81
2024/04/10 12:14:02;;;;;;;3.53;1.20;;;;;;;15.33;53.48;102012.56;5338930;26;20247;-81
2024/04/10 12:16:28;;;;;;;4.43;1.40;;;;;;;15.32;52.79;102003.63;5339154;26;20257;-81